sensor_id;sensor_type;location;lat;lon;timestamp;temperature;humidity
22629;DHT22;11481;53.694;9.910;2024-02-15T00:01:20;11.90;99.90
22629;DHT22;11481;53.694;9.910;2024-02-15T00:03:46;11.90;99.90
22629;DHT22;11481;53.694;9.910;2024-02-15T00:06:13;12.40;99.90
22629;DHT22;11481;53.694;9.910;2024-02-15T00:08:40;12.00;99.90
22629;DHT22;11481;53.694;9.910;2024-02-15T00:11:06;12.00;99.90
22629;DHT22;11481;53.694;9.910;2024-02-15T00:13:35;12.50;99.90
22629;DHT22;11481;53.694;9.910;2024-02-15T00:16:03;12.00;99.90
22629;DHT22;11481;53.694;9.910;2024-02-15T00:18:31;12.00;99.90
22629;DHT22;11481;53.694;9.910;2024-02-15T00:20:58;12.00;99.90
22629;DHT22;11481;53.694;9.910;2024-02-15T00:23:26;12.00;99.90
22629;DHT22;11481;53.694;9.910;2024-02-15T00:25:53;12.00;99.90
22629;DHT22;11481;53.694;9.910;2024-02-15T00:28:20;11.90;99.90
22629;DHT22;11481;53.694;9.910;2024-02-15T00:30:47;12.00;99.90
22629;DHT22;11481;53.694;9.910;2024-02-15T00:33:14;12.00;99.90
22629;DHT22;11481;53.694;9.910;2024-02-15T00:35:41;11.90;99.90
22629;DHT22;11481;53.694;9.910;2024-02-15T00:38:08;11.90;99.90
22629;DHT22;11481;53.694;9.910;2024-02-15T00:40:36;12.90;99.90
22629;DHT22;11481;53.694;9.910;2024-02-15T00:43:02;11.90;99.90
22629;DHT22;11481;53.694;9.910;2024-02-15T00:45:29;11.90;99.90
22629;DHT22;11481;53.694;9.910;2024-02-15T00:47:56;11.90;99.90
22629;DHT22;11481;53.694;9.910;2024-02-15T00:50:23;11.90;99.90
22629;DHT22;11481;53.694;9.910;2024-02-15T00:52:50;11.90;99.90
22629;DHT22;11481;53.694;9.910;2024-02-15T00:55:17;11.90;99.90
22629;DHT22;11481;53.694;9.910;2024-02-15T00:57:44;11.80;99.90
22629;DHT22;11481;53.694;9.910;2024-02-15T01:00:11;11.90;99.90
22629;DHT22;11481;53.694;9.910;2024-02-15T01:02:38;11.90;99.90
22629;DHT22;11481;53.694;9.910;2024-02-15T01:05:05;11.90;99.90
22629;DHT22;11481;53.694;9.910;2024-02-15T01:07:32;11.90;99.90
22629;DHT22;11481;53.694;9.910;2024-02-15T01:09:59;11.90;99.90
22629;DHT22;11481;53.694;9.910;2024-02-15T01:12:25;11.80;99.90
22629;DHT22;11481;53.694;9.910;2024-02-15T01:14:52;11.90;99.90
22629;DHT22;11481;53.694;9.910;2024-02-15T01:17:19;11.90;99.90
22629;DHT22;11481;53.694;9.910;2024-02-15T01:19:45;11.90;99.90
22629;DHT22;11481;53.694;9.910;2024-02-15T01:22:12;11.90;99.90
22629;DHT22;11481;53.694;9.910;2024-02-15T01:24:39;12.50;99.90
22629;DHT22;11481;53.694;9.910;2024-02-15T01:27:06;11.90;99.90
22629;DHT22;11481;53.694;9.910;2024-02-15T01:29:33;11.90;99.90
22629;DHT22;11481;53.694;9.910;2024-02-15T01:32:01;11.90;99.90
22629;DHT22;11481;53.694;9.910;2024-02-15T01:34:29;11.90;99.90
22629;DHT22;11481;53.694;9.910;2024-02-15T01:36:56;11.90;99.90
22629;DHT22;11481;53.694;9.910;2024-02-15T01:39:22;11.90;99.90
22629;DHT22;11481;53.694;9.910;2024-02-15T01:41:49;12.00;99.90
22629;DHT22;11481;53.694;9.910;2024-02-15T01:44:22;11.90;99.90
22629;DHT22;11481;53.694;9.910;2024-02-15T01:46:51;11.90;99.90
22629;DHT22;11481;53.694;9.910;2024-02-15T01:49:22;11.90;99.90
22629;DHT22;11481;53.694;9.910;2024-02-15T01:51:51;11.90;99.90
22629;DHT22;11481;53.694;9.910;2024-02-15T01:54:19;11.90;99.90
22629;DHT22;11481;53.694;9.910;2024-02-15T01:56:46;12.40;99.90
22629;DHT22;11481;53.694;9.910;2024-02-15T01:59:15;11.90;99.90
22629;DHT22;11481;53.694;9.910;2024-02-15T02:01:44;11.90;99.90
22629;DHT22;11481;53.694;9.910;2024-02-15T02:04:11;11.90;99.90
22629;DHT22;11481;53.694;9.910;2024-02-15T02:06:38;12.40;99.90
22629;DHT22;11481;53.694;9.910;2024-02-15T02:09:05;11.90;99.90
22629;DHT22;11481;53.694;9.910;2024-02-15T02:11:32;11.90;99.90
22629;DHT22;11481;53.694;9.910;2024-02-15T02:13:59;11.90;99.90
22629;DHT22;11481;53.694;9.910;2024-02-15T02:16:30;11.90;99.90
22629;DHT22;11481;53.694;9.910;2024-02-15T02:19:02;11.90;99.90
22629;DHT22;11481;53.694;9.910;2024-02-15T02:21:29;12.80;99.90
22629;DHT22;11481;53.694;9.910;2024-02-15T02:23:57;12.00;99.90
22629;DHT22;11481;53.694;9.910;2024-02-15T02:26:25;12.00;99.90
22629;DHT22;11481;53.694;9.910;2024-02-15T02:28:52;11.90;99.90
22629;DHT22;11481;53.694;9.910;2024-02-15T02:31:22;11.90;99.90
22629;DHT22;11481;53.694;9.910;2024-02-15T02:33:52;12.00;99.90
22629;DHT22;11481;53.694;9.910;2024-02-15T02:36:19;11.90;99.90
22629;DHT22;11481;53.694;9.910;2024-02-15T02:38:46;11.90;99.90
22629;DHT22;11481;53.694;9.910;2024-02-15T02:41:16;11.90;99.90
22629;DHT22;11481;53.694;9.910;2024-02-15T02:43:45;13.90;99.90
22629;DHT22;11481;53.694;9.910;2024-02-15T02:46:12;12.30;99.90
22629;DHT22;11481;53.694;9.910;2024-02-15T02:48:39;12.00;99.90
22629;DHT22;11481;53.694;9.910;2024-02-15T02:51:07;11.90;99.90
22629;DHT22;11481;53.694;9.910;2024-02-15T02:53:34;11.90;99.90
22629;DHT22;11481;53.694;9.910;2024-02-15T02:56:01;12.00;99.90
22629;DHT22;11481;53.694;9.910;2024-02-15T02:58:28;12.00;99.90
22629;DHT22;11481;53.694;9.910;2024-02-15T03:00:55;11.90;99.90
22629;DHT22;11481;53.694;9.910;2024-02-15T03:03:23;11.90;99.90
22629;DHT22;11481;53.694;9.910;2024-02-15T03:05:50;11.90;99.90
22629;DHT22;11481;53.694;9.910;2024-02-15T03:08:17;11.90;99.90
22629;DHT22;11481;53.694;9.910;2024-02-15T03:10:44;13.40;99.90
22629;DHT22;11481;53.694;9.910;2024-02-15T03:13:11;11.90;99.90
22629;DHT22;11481;53.694;9.910;2024-02-15T03:15:38;11.90;99.90
22629;DHT22;11481;53.694;9.910;2024-02-15T03:18:05;11.90;99.90
22629;DHT22;11481;53.694;9.910;2024-02-15T03:20:34;12.00;99.90
22629;DHT22;11481;53.694;9.910;2024-02-15T03:23:03;12.00;99.90
22629;DHT22;11481;53.694;9.910;2024-02-15T03:25:30;12.00;99.90
22629;DHT22;11481;53.694;9.910;2024-02-15T03:27:58;12.00;99.90
22629;DHT22;11481;53.694;9.910;2024-02-15T03:30:26;11.90;99.90
22629;DHT22;11481;53.694;9.910;2024-02-15T03:32:54;12.00;99.90
22629;DHT22;11481;53.694;9.910;2024-02-15T03:35:23;12.00;99.90
22629;DHT22;11481;53.694;9.910;2024-02-15T03:37:50;13.10;99.90
22629;DHT22;11481;53.694;9.910;2024-02-15T03:40:19;12.80;99.90
22629;DHT22;11481;53.694;9.910;2024-02-15T03:42:46;11.90;99.90
22629;DHT22;11481;53.694;9.910;2024-02-15T03:45:19;11.90;99.90
22629;DHT22;11481;53.694;9.910;2024-02-15T03:47:46;11.80;99.90
22629;DHT22;11481;53.694;9.910;2024-02-15T03:50:13;11.90;99.90
22629;DHT22;11481;53.694;9.910;2024-02-15T03:52:42;11.90;99.90
22629;DHT22;11481;53.694;9.910;2024-02-15T03:55:11;11.90;99.90
22629;DHT22;11481;53.694;9.910;2024-02-15T03:57:40;11.90;99.90
22629;DHT22;11481;53.694;9.910;2024-02-15T04:00:10;11.90;99.90
22629;DHT22;11481;53.694;9.910;2024-02-15T04:02:38;12.00;99.90
22629;DHT22;11481;53.694;9.910;2024-02-15T04:05:08;12.00;99.90
22629;DHT22;11481;53.694;9.910;2024-02-15T04:07:36;12.30;99.90
22629;DHT22;11481;53.694;9.910;2024-02-15T04:10:04;12.00;99.90
22629;DHT22;11481;53.694;9.910;2024-02-15T04:12:33;12.00;99.90
22629;DHT22;11481;53.694;9.910;2024-02-15T04:15:00;12.00;99.90
22629;DHT22;11481;53.694;9.910;2024-02-15T04:17:32;12.30;99.90
22629;DHT22;11481;53.694;9.910;2024-02-15T04:20:03;12.00;99.90
22629;DHT22;11481;53.694;9.910;2024-02-15T04:22:30;12.00;99.90
22629;DHT22;11481;53.694;9.910;2024-02-15T04:25:07;12.00;99.90
22629;DHT22;11481;53.694;9.910;2024-02-15T04:27:36;12.00;99.90
22629;DHT22;11481;53.694;9.910;2024-02-15T04:30:03;12.00;99.90
22629;DHT22;11481;53.694;9.910;2024-02-15T04:32:32;12.00;99.90
22629;DHT22;11481;53.694;9.910;2024-02-15T04:35:01;13.40;99.90
22629;DHT22;11481;53.694;9.910;2024-02-15T04:37:29;11.90;99.90
22629;DHT22;11481;53.694;9.910;2024-02-15T04:39:56;11.90;99.90
22629;DHT22;11481;53.694;9.910;2024-02-15T04:42:23;11.90;99.90
22629;DHT22;11481;53.694;9.910;2024-02-15T04:44:54;12.00;99.90
22629;DHT22;11481;53.694;9.910;2024-02-15T04:47:21;11.90;99.90
22629;DHT22;11481;53.694;9.910;2024-02-15T04:49:47;11.90;99.90
22629;DHT22;11481;53.694;9.910;2024-02-15T04:52:14;11.90;99.90
22629;DHT22;11481;53.694;9.910;2024-02-15T04:54:41;11.90;99.90
22629;DHT22;11481;53.694;9.910;2024-02-15T04:57:08;11.90;99.90
22629;DHT22;11481;53.694;9.910;2024-02-15T04:59:38;13.30;99.90
22629;DHT22;11481;53.694;9.910;2024-02-15T05:02:05;12.20;99.90
22629;DHT22;11481;53.694;9.910;2024-02-15T05:04:34;12.00;99.90
22629;DHT22;11481;53.694;9.910;2024-02-15T05:07:03;12.00;99.90
22629;DHT22;11481;53.694;9.910;2024-02-15T05:09:30;12.00;99.90
22629;DHT22;11481;53.694;9.910;2024-02-15T05:12:00;12.00;99.90
22629;DHT22;11481;53.694;9.910;2024-02-15T05:14:28;12.00;99.90
22629;DHT22;11481;53.694;9.910;2024-02-15T05:16:55;12.10;99.90
22629;DHT22;11481;53.694;9.910;2024-02-15T05:19:22;12.10;99.90
22629;DHT22;11481;53.694;9.910;2024-02-15T05:21:50;12.10;99.90
22629;DHT22;11481;53.694;9.910;2024-02-15T05:24:17;12.20;99.90
22629;DHT22;11481;53.694;9.910;2024-02-15T05:26:45;12.10;99.90
22629;DHT22;11481;53.694;9.910;2024-02-15T05:29:19;12.10;99.90
22629;DHT22;11481;53.694;9.910;2024-02-15T05:31:47;12.10;99.90
22629;DHT22;11481;53.694;9.910;2024-02-15T05:34:17;12.20;99.90
22629;DHT22;11481;53.694;9.910;2024-02-15T05:36:44;12.10;99.90
22629;DHT22;11481;53.694;9.910;2024-02-15T05:39:11;12.20;99.90
22629;DHT22;11481;53.694;9.910;2024-02-15T05:41:38;12.70;99.90
22629;DHT22;11481;53.694;9.910;2024-02-15T05:44:06;12.10;99.90
22629;DHT22;11481;53.694;9.910;2024-02-15T05:46:34;12.10;99.90
22629;DHT22;11481;53.694;9.910;2024-02-15T05:49:06;12.10;99.90
22629;DHT22;11481;53.694;9.910;2024-02-15T05:51:33;12.80;99.90
22629;DHT22;11481;53.694;9.910;2024-02-15T05:54:01;12.10;99.90
22629;DHT22;11481;53.694;9.910;2024-02-15T05:56:28;12.20;99.90
22629;DHT22;11481;53.694;9.910;2024-02-15T05:58:56;12.30;99.90
22629;DHT22;11481;53.694;9.910;2024-02-15T06:01:23;12.30;99.90
22629;DHT22;11481;53.694;9.910;2024-02-15T06:03:50;12.30;99.90
22629;DHT22;11481;53.694;9.910;2024-02-15T06:06:21;12.30;99.90
22629;DHT22;11481;53.694;9.910;2024-02-15T06:08:49;12.30;99.90
22629;DHT22;11481;53.694;9.910;2024-02-15T06:11:19;12.30;99.90
22629;DHT22;11481;53.694;9.910;2024-02-15T06:13:47;12.30;99.90
22629;DHT22;11481;53.694;9.910;2024-02-15T06:16:14;12.30;99.90
22629;DHT22;11481;53.694;9.910;2024-02-15T06:18:41;12.40;99.90
22629;DHT22;11481;53.694;9.910;2024-02-15T06:21:08;12.40;99.90
22629;DHT22;11481;53.694;9.910;2024-02-15T06:23:35;12.30;99.90
22629;DHT22;11481;53.694;9.910;2024-02-15T06:26:02;12.30;99.90
22629;DHT22;11481;53.694;9.910;2024-02-15T06:28:29;12.30;99.90
22629;DHT22;11481;53.694;9.910;2024-02-15T06:31:15;12.40;99.90
22629;DHT22;11481;53.694;9.910;2024-02-15T06:34:00;12.30;99.90
22629;DHT22;11481;53.694;9.910;2024-02-15T06:36:48;12.30;99.90
22629;DHT22;11481;53.694;9.910;2024-02-15T06:39:33;12.50;99.90
22629;DHT22;11481;53.694;9.910;2024-02-15T06:42:15;12.30;99.90
22629;DHT22;11481;53.694;9.910;2024-02-15T06:44:47;13.00;99.90
22629;DHT22;11481;53.694;9.910;2024-02-15T06:47:14;12.30;99.90
22629;DHT22;11481;53.694;9.910;2024-02-15T06:49:46;12.40;99.90
22629;DHT22;11481;53.694;9.910;2024-02-15T06:52:13;12.20;99.90
22629;DHT22;11481;53.694;9.910;2024-02-15T06:54:41;12.30;99.90
22629;DHT22;11481;53.694;9.910;2024-02-15T06:57:08;12.30;99.90
22629;DHT22;11481;53.694;9.910;2024-02-15T06:59:35;12.30;99.90
22629;DHT22;11481;53.694;9.910;2024-02-15T07:02:03;12.30;99.90
22629;DHT22;11481;53.694;9.910;2024-02-15T07:04:31;12.20;99.90
22629;DHT22;11481;53.694;9.910;2024-02-15T07:06:59;12.30;99.90
22629;DHT22;11481;53.694;9.910;2024-02-15T07:09:26;12.20;99.90
22629;DHT22;11481;53.694;9.910;2024-02-15T07:11:54;12.40;99.90
22629;DHT22;11481;53.694;9.910;2024-02-15T07:14:21;12.30;99.90
22629;DHT22;11481;53.694;9.910;2024-02-15T07:16:49;12.60;99.90
22629;DHT22;11481;53.694;9.910;2024-02-15T07:19:16;12.30;99.90
22629;DHT22;11481;53.694;9.910;2024-02-15T07:21:43;12.20;99.90
22629;DHT22;11481;53.694;9.910;2024-02-15T07:24:10;12.30;99.90
22629;DHT22;11481;53.694;9.910;2024-02-15T07:26:37;12.30;99.90
22629;DHT22;11481;53.694;9.910;2024-02-15T07:29:04;12.20;99.90
22629;DHT22;11481;53.694;9.910;2024-02-15T07:31:32;12.30;99.90
22629;DHT22;11481;53.694;9.910;2024-02-15T07:33:59;12.30;99.90
22629;DHT22;11481;53.694;9.910;2024-02-15T07:36:27;12.30;99.90
22629;DHT22;11481;53.694;9.910;2024-02-15T07:38:54;12.40;99.90
22629;DHT22;11481;53.694;9.910;2024-02-15T07:41:23;12.50;99.90
22629;DHT22;11481;53.694;9.910;2024-02-15T07:43:51;12.30;99.90
22629;DHT22;11481;53.694;9.910;2024-02-15T07:46:22;12.30;99.90
22629;DHT22;11481;53.694;9.910;2024-02-15T07:48:49;12.20;99.90
22629;DHT22;11481;53.694;9.910;2024-02-15T07:51:21;12.20;99.90
22629;DHT22;11481;53.694;9.910;2024-02-15T07:53:49;12.30;99.90
22629;DHT22;11481;53.694;9.910;2024-02-15T07:56:16;12.20;99.90
22629;DHT22;11481;53.694;9.910;2024-02-15T07:58:45;12.40;99.90
22629;DHT22;11481;53.694;9.910;2024-02-15T08:01:19;12.30;99.90
22629;DHT22;11481;53.694;9.910;2024-02-15T08:03:52;12.30;99.90
22629;DHT22;11481;53.694;9.910;2024-02-15T08:06:21;12.30;99.90
22629;DHT22;11481;53.694;9.910;2024-02-15T08:08:51;12.50;99.90
22629;DHT22;11481;53.694;9.910;2024-02-15T08:11:19;13.10;99.90
22629;DHT22;11481;53.694;9.910;2024-02-15T08:13:50;12.30;99.90
22629;DHT22;11481;53.694;9.910;2024-02-15T08:16:19;12.40;99.90
22629;DHT22;11481;53.694;9.910;2024-02-15T08:18:46;12.40;99.90
22629;DHT22;11481;53.694;9.910;2024-02-15T08:21:14;12.40;99.90
22629;DHT22;11481;53.694;9.910;2024-02-15T08:23:41;12.40;99.90
22629;DHT22;11481;53.694;9.910;2024-02-15T08:26:08;12.40;99.90
22629;DHT22;11481;53.694;9.910;2024-02-15T08:28:37;12.40;99.90
22629;DHT22;11481;53.694;9.910;2024-02-15T08:31:04;12.40;99.90
22629;DHT22;11481;53.694;9.910;2024-02-15T08:33:31;12.40;99.90
22629;DHT22;11481;53.694;9.910;2024-02-15T08:35:59;13.00;99.90
22629;DHT22;11481;53.694;9.910;2024-02-15T08:38:29;12.40;99.90
22629;DHT22;11481;53.694;9.910;2024-02-15T08:40:55;12.40;99.90
22629;DHT22;11481;53.694;9.910;2024-02-15T08:43:22;12.50;99.90
22629;DHT22;11481;53.694;9.910;2024-02-15T08:45:49;12.50;99.90
22629;DHT22;11481;53.694;9.910;2024-02-15T08:48:17;13.50;99.90
22629;DHT22;11481;53.694;9.910;2024-02-15T08:50:44;12.50;99.90
22629;DHT22;11481;53.694;9.910;2024-02-15T08:53:12;12.60;99.90
22629;DHT22;11481;53.694;9.910;2024-02-15T08:55:41;12.60;99.90
22629;DHT22;11481;53.694;9.910;2024-02-15T08:58:08;12.60;99.90
22629;DHT22;11481;53.694;9.910;2024-02-15T09:00:37;12.70;99.90
22629;DHT22;11481;53.694;9.910;2024-02-15T09:03:07;12.70;99.90
22629;DHT22;11481;53.694;9.910;2024-02-15T09:05:34;12.70;99.90
22629;DHT22;11481;53.694;9.910;2024-02-15T09:08:02;13.70;99.90
22629;DHT22;11481;53.694;9.910;2024-02-15T09:10:31;12.70;99.90
22629;DHT22;11481;53.694;9.910;2024-02-15T09:12:57;12.70;99.90
22629;DHT22;11481;53.694;9.910;2024-02-15T09:15:24;12.70;99.90
22629;DHT22;11481;53.694;9.910;2024-02-15T09:17:51;12.70;99.90
22629;DHT22;11481;53.694;9.910;2024-02-15T09:20:21;13.40;99.90
22629;DHT22;11481;53.694;9.910;2024-02-15T09:22:50;14.00;99.90
22629;DHT22;11481;53.694;9.910;2024-02-15T09:25:18;12.70;99.90
22629;DHT22;11481;53.694;9.910;2024-02-15T09:27:45;12.70;99.90
22629;DHT22;11481;53.694;9.910;2024-02-15T09:30:13;12.80;99.90
22629;DHT22;11481;53.694;9.910;2024-02-15T09:32:40;12.80;99.90
22629;DHT22;11481;53.694;9.910;2024-02-15T09:35:08;12.80;99.90
22629;DHT22;11481;53.694;9.910;2024-02-15T09:37:43;12.90;99.90
22629;DHT22;11481;53.694;9.910;2024-02-15T09:40:12;12.90;99.90
22629;DHT22;11481;53.694;9.910;2024-02-15T09:42:39;12.90;99.90
22629;DHT22;11481;53.694;9.910;2024-02-15T09:45:07;12.90;99.90
22629;DHT22;11481;53.694;9.910;2024-02-15T09:47:38;12.90;99.90
22629;DHT22;11481;53.694;9.910;2024-02-15T09:50:11;12.90;99.90
22629;DHT22;11481;53.694;9.910;2024-02-15T09:52:56;12.90;99.90
22629;DHT22;11481;53.694;9.910;2024-02-15T09:55:24;13.10;99.90
22629;DHT22;11481;53.694;9.910;2024-02-15T09:57:51;12.90;99.90
22629;DHT22;11481;53.694;9.910;2024-02-15T10:00:19;13.00;99.90
22629;DHT22;11481;53.694;9.910;2024-02-15T10:02:53;13.00;99.90
22629;DHT22;11481;53.694;9.910;2024-02-15T10:05:20;13.00;99.90
22629;DHT22;11481;53.694;9.910;2024-02-15T10:07:47;12.90;99.90
22629;DHT22;11481;53.694;9.910;2024-02-15T10:10:22;13.00;99.90
22629;DHT22;11481;53.694;9.910;2024-02-15T10:12:50;13.00;99.90
22629;DHT22;11481;53.694;9.910;2024-02-15T10:15:37;13.00;99.90
22629;DHT22;11481;53.694;9.910;2024-02-15T10:18:06;13.00;99.90
22629;DHT22;11481;53.694;9.910;2024-02-15T10:20:35;13.00;99.90
22629;DHT22;11481;53.694;9.910;2024-02-15T10:25:39;13.00;99.90
22629;DHT22;11481;53.694;9.910;2024-02-15T10:28:11;12.90;99.90
22629;DHT22;11481;53.694;9.910;2024-02-15T10:30:40;13.00;99.90
22629;DHT22;11481;53.694;9.910;2024-02-15T10:33:09;13.00;99.90
22629;DHT22;11481;53.694;9.910;2024-02-15T10:35:36;13.10;99.90
22629;DHT22;11481;53.694;9.910;2024-02-15T10:38:10;13.10;99.90
22629;DHT22;11481;53.694;9.910;2024-02-15T10:40:38;13.20;99.90
22629;DHT22;11481;53.694;9.910;2024-02-15T10:43:09;13.10;99.90
22629;DHT22;11481;53.694;9.910;2024-02-15T10:45:37;13.30;99.90
22629;DHT22;11481;53.694;9.910;2024-02-15T10:48:10;13.10;99.90
22629;DHT22;11481;53.694;9.910;2024-02-15T10:50:39;13.10;99.90
22629;DHT22;11481;53.694;9.910;2024-02-15T10:53:21;13.10;99.90
22629;DHT22;11481;53.694;9.910;2024-02-15T10:56:26;13.10;99.90
22629;DHT22;11481;53.694;9.910;2024-02-15T10:59:00;13.20;99.90
22629;DHT22;11481;53.694;9.910;2024-02-15T11:01:29;13.20;99.90
22629;DHT22;11481;53.694;9.910;2024-02-15T11:04:07;13.60;99.90
22629;DHT22;11481;53.694;9.910;2024-02-15T11:06:38;13.20;99.90
22629;DHT22;11481;53.694;9.910;2024-02-15T11:09:09;13.20;99.90
22629;DHT22;11481;53.694;9.910;2024-02-15T11:11:39;13.20;99.90
22629;DHT22;11481;53.694;9.910;2024-02-15T11:14:26;15.20;99.90
22629;DHT22;11481;53.694;9.910;2024-02-15T11:16:53;13.30;99.90
22629;DHT22;11481;53.694;9.910;2024-02-15T11:22:16;13.40;99.90
22629;DHT22;11481;53.694;9.910;2024-02-15T11:24:47;13.40;99.90
22629;DHT22;11481;53.694;9.910;2024-02-15T11:27:28;13.40;99.90
22629;DHT22;11481;53.694;9.910;2024-02-15T11:29:59;13.40;99.90
22629;DHT22;11481;53.694;9.910;2024-02-15T11:32:48;13.40;99.90
22629;DHT22;11481;53.694;9.910;2024-02-15T11:35:18;13.50;99.90
22629;DHT22;11481;53.694;9.910;2024-02-15T11:37:50;13.40;99.90
22629;DHT22;11481;53.694;9.910;2024-02-15T11:40:24;13.40;99.90
22629;DHT22;11481;53.694;9.910;2024-02-15T11:42:54;13.50;99.90
22629;DHT22;11481;53.694;9.910;2024-02-15T11:45:21;13.50;99.90
22629;DHT22;11481;53.694;9.910;2024-02-15T11:47:50;13.40;99.90
22629;DHT22;11481;53.694;9.910;2024-02-15T11:50:19;13.50;99.90
22629;DHT22;11481;53.694;9.910;2024-02-15T11:52:47;13.40;99.90
22629;DHT22;11481;53.694;9.910;2024-02-15T11:55:20;13.50;99.90
22629;DHT22;11481;53.694;9.910;2024-02-15T11:57:58;13.80;99.90
22629;DHT22;11481;53.694;9.910;2024-02-15T12:00:38;13.50;99.90
22629;DHT22;11481;53.694;9.910;2024-02-15T12:03:25;13.50;99.90
22629;DHT22;11481;53.694;9.910;2024-02-15T12:06:27;13.80;99.90
22629;DHT22;11481;53.694;9.910;2024-02-15T12:09:18;13.60;99.90
22629;DHT22;11481;53.694;9.910;2024-02-15T12:12:04;13.50;99.90
22629;DHT22;11481;53.694;9.910;2024-02-15T12:14:57;13.50;99.90
22629;DHT22;11481;53.694;9.910;2024-02-15T12:17:43;13.60;99.90
22629;DHT22;11481;53.694;9.910;2024-02-15T12:20:28;13.50;99.90
22629;DHT22;11481;53.694;9.910;2024-02-15T12:22:55;13.60;99.90
22629;DHT22;11481;53.694;9.910;2024-02-15T12:25:22;14.60;99.90
22629;DHT22;11481;53.694;9.910;2024-02-15T12:27:54;14.10;99.90
22629;DHT22;11481;53.694;9.910;2024-02-15T12:30:21;13.60;99.90
22629;DHT22;11481;53.694;9.910;2024-02-15T12:32:50;13.50;99.90
22629;DHT22;11481;53.694;9.910;2024-02-15T12:35:20;13.60;99.90
22629;DHT22;11481;53.694;9.910;2024-02-15T12:38:02;13.60;99.90
22629;DHT22;11481;53.694;9.910;2024-02-15T12:40:33;13.60;99.90
22629;DHT22;11481;53.694;9.910;2024-02-15T12:43:00;13.50;99.90
22629;DHT22;11481;53.694;9.910;2024-02-15T12:45:28;14.30;99.90
22629;DHT22;11481;53.694;9.910;2024-02-15T12:47:57;13.50;99.90
22629;DHT22;11481;53.694;9.910;2024-02-15T12:50:28;13.50;99.90
22629;DHT22;11481;53.694;9.910;2024-02-15T12:52:55;13.50;99.90
22629;DHT22;11481;53.694;9.910;2024-02-15T12:55:23;14.50;99.90
22629;DHT22;11481;53.694;9.910;2024-02-15T12:57:54;13.50;99.90
22629;DHT22;11481;53.694;9.910;2024-02-15T13:00:25;13.60;99.90
22629;DHT22;11481;53.694;9.910;2024-02-15T13:02:56;13.50;99.90
22629;DHT22;11481;53.694;9.910;2024-02-15T13:05:27;13.50;99.90
22629;DHT22;11481;53.694;9.910;2024-02-15T13:07:55;13.50;99.90
22629;DHT22;11481;53.694;9.910;2024-02-15T13:10:22;13.40;99.90
22629;DHT22;11481;53.694;9.910;2024-02-15T13:12:54;13.50;99.90
22629;DHT22;11481;53.694;9.910;2024-02-15T13:15:22;13.50;99.90
22629;DHT22;11481;53.694;9.910;2024-02-15T13:17:54;13.50;99.90
22629;DHT22;11481;53.694;9.910;2024-02-15T13:20:23;13.50;99.90
22629;DHT22;11481;53.694;9.910;2024-02-15T13:23:00;13.50;99.90
22629;DHT22;11481;53.694;9.910;2024-02-15T13:25:29;13.90;99.90
22629;DHT22;11481;53.694;9.910;2024-02-15T13:27:56;13.50;99.90
22629;DHT22;11481;53.694;9.910;2024-02-15T13:30:26;13.40;99.90
22629;DHT22;11481;53.694;9.910;2024-02-15T13:32:55;13.40;99.90
22629;DHT22;11481;53.694;9.910;2024-02-15T13:35:23;13.40;99.90
22629;DHT22;11481;53.694;9.910;2024-02-15T13:37:54;13.40;99.90
22629;DHT22;11481;53.694;9.910;2024-02-15T13:40:21;13.40;99.90
22629;DHT22;11481;53.694;9.910;2024-02-15T13:43:00;13.40;99.90
22629;DHT22;11481;53.694;9.910;2024-02-15T13:45:33;13.50;99.90
22629;DHT22;11481;53.694;9.910;2024-02-15T13:48:04;13.30;99.90
22629;DHT22;11481;53.694;9.910;2024-02-15T13:50:32;13.30;99.90
22629;DHT22;11481;53.694;9.910;2024-02-15T13:53:00;13.30;99.90
22629;DHT22;11481;53.694;9.910;2024-02-15T13:55:27;13.20;99.90
22629;DHT22;11481;53.694;9.910;2024-02-15T13:57:55;13.20;99.90
22629;DHT22;11481;53.694;9.910;2024-02-15T14:00:24;13.30;99.90
22629;DHT22;11481;53.694;9.910;2024-02-15T14:02:58;13.70;99.90
22629;DHT22;11481;53.694;9.910;2024-02-15T14:05:27;14.50;99.90
22629;DHT22;11481;53.694;9.910;2024-02-15T14:08:00;13.30;99.90
22629;DHT22;11481;53.694;9.910;2024-02-15T14:10:30;13.30;99.90
22629;DHT22;11481;53.694;9.910;2024-02-15T14:12:57;13.30;99.90
22629;DHT22;11481;53.694;9.910;2024-02-15T14:15:32;13.40;99.90
22629;DHT22;11481;53.694;9.910;2024-02-15T14:18:09;13.40;99.90
22629;DHT22;11481;53.694;9.910;2024-02-15T14:20:46;14.10;99.90
22629;DHT22;11481;53.694;9.910;2024-02-15T14:23:14;13.20;99.90
22629;DHT22;11481;53.694;9.910;2024-02-15T14:25:42;13.30;99.90
22629;DHT22;11481;53.694;9.910;2024-02-15T14:28:09;13.30;99.90
22629;DHT22;11481;53.694;9.910;2024-02-15T14:30:36;13.30;99.90
22629;DHT22;11481;53.694;9.910;2024-02-15T14:33:22;13.30;99.90
22629;DHT22;11481;53.694;9.910;2024-02-15T14:35:50;13.20;99.90
22629;DHT22;11481;53.694;9.910;2024-02-15T14:38:20;13.30;99.90
22629;DHT22;11481;53.694;9.910;2024-02-15T14:40:50;14.30;99.90
22629;DHT22;11481;53.694;9.910;2024-02-15T14:43:20;14.80;99.90
22629;DHT22;11481;53.694;9.910;2024-02-15T14:45:48;13.40;99.90
22629;DHT22;11481;53.694;9.910;2024-02-15T14:48:15;13.30;99.90
22629;DHT22;11481;53.694;9.910;2024-02-15T14:50:44;13.30;99.90
22629;DHT22;11481;53.694;9.910;2024-02-15T14:53:12;13.40;99.90
22629;DHT22;11481;53.694;9.910;2024-02-15T14:55:39;13.40;99.90
22629;DHT22;11481;53.694;9.910;2024-02-15T14:58:07;13.80;99.90
22629;DHT22;11481;53.694;9.910;2024-02-15T15:00:40;13.40;99.90
22629;DHT22;11481;53.694;9.910;2024-02-15T15:03:12;13.40;99.90
22629;DHT22;11481;53.694;9.910;2024-02-15T15:05:41;13.40;99.90
22629;DHT22;11481;53.694;9.910;2024-02-15T15:08:27;13.50;99.90
22629;DHT22;11481;53.694;9.910;2024-02-15T15:11:12;13.50;99.90
22629;DHT22;11481;53.694;9.910;2024-02-15T15:13:57;13.40;99.90
22629;DHT22;11481;53.694;9.910;2024-02-15T15:16:24;13.40;99.90
22629;DHT22;11481;53.694;9.910;2024-02-15T15:18:53;13.40;99.90
22629;DHT22;11481;53.694;9.910;2024-02-15T15:21:20;13.40;99.90
22629;DHT22;11481;53.694;9.910;2024-02-15T15:23:49;13.40;99.90
22629;DHT22;11481;53.694;9.910;2024-02-15T15:26:20;13.50;99.90
22629;DHT22;11481;53.694;9.910;2024-02-15T15:28:48;13.50;99.90
22629;DHT22;11481;53.694;9.910;2024-02-15T15:31:15;13.50;99.90
22629;DHT22;11481;53.694;9.910;2024-02-15T15:33:43;13.50;99.90
22629;DHT22;11481;53.694;9.910;2024-02-15T15:36:10;13.80;99.90
22629;DHT22;11481;53.694;9.910;2024-02-15T15:38:38;13.50;99.90
22629;DHT22;11481;53.694;9.910;2024-02-15T15:41:07;13.80;99.90
22629;DHT22;11481;53.694;9.910;2024-02-15T15:43:35;13.50;99.90
22629;DHT22;11481;53.694;9.910;2024-02-15T15:46:02;13.50;99.90
22629;DHT22;11481;53.694;9.910;2024-02-15T15:48:30;13.50;99.90
22629;DHT22;11481;53.694;9.910;2024-02-15T15:50:57;13.50;99.90